createdAt,value
2018-05-03T00:01:08.649Z,68.40
2018-05-03T00:03:35.508Z,68.40
2018-05-03T00:06:02.824Z,68.50
2018-05-03T00:08:28.962Z,68.60
2018-05-03T00:10:55.086Z,68.60
2018-05-03T00:13:21.232Z,68.50
2018-05-03T00:15:47.325Z,68.40
2018-05-03T00:18:13.490Z,68.30
2018-05-03T00:20:39.565Z,68.30
2018-05-03T00:23:06.425Z,67.90
2018-05-03T00:25:32.566Z,67.90
2018-05-03T00:27:58.694Z,67.80
2018-05-03T00:30:24.785Z,67.90
2018-05-03T00:32:50.895Z,68.00
2018-05-03T00:35:16.985Z,68.00
2018-05-03T00:37:43.095Z,68.00
2018-05-03T00:40:09.224Z,67.90
2018-05-03T00:42:36.113Z,68.00
2018-05-03T00:45:02.216Z,67.90
2018-05-03T00:47:29.055Z,68.10
2018-05-03T00:49:55.937Z,68.10
2018-05-03T00:52:22.037Z,68.10
2018-05-03T00:54:48.137Z,68.00
2018-05-03T00:57:14.281Z,68.10
2018-05-03T00:59:40.367Z,68.20
2018-05-03T01:02:06.497Z,67.90
2018-05-03T01:04:33.771Z,68.20
2018-05-03T01:06:59.973Z,68.20
2018-05-03T01:09:26.046Z,68.30
2018-05-03T01:11:52.122Z,68.40
2018-05-03T01:14:18.966Z,68.30
2018-05-03T01:16:45.068Z,68.50
2018-05-03T01:19:11.904Z,69.40
2018-05-03T01:21:38.005Z,70.10
2018-05-03T01:24:04.118Z,70.80
2018-05-03T01:26:30.972Z,74.00
2018-05-03T01:28:57.822Z,75.00
2018-05-03T01:31:23.928Z,75.00
2018-05-03T01:33:50.044Z,75.10
2018-05-03T01:36:26.283Z,76.00
2018-05-03T01:38:52.409Z,76.70
2018-05-03T01:41:18.509Z,77.60
2018-05-03T01:43:45.335Z,79.10
2018-05-03T01:46:11.478Z,79.10
2018-05-03T01:48:38.358Z,80.20
2018-05-03T01:51:04.452Z,80.20
2018-05-03T01:53:30.558Z,80.80
2018-05-03T01:55:56.659Z,81.30
2018-05-03T01:58:22.753Z,81.60
2018-05-03T02:00:49.606Z,82.30
2018-05-03T02:03:16.489Z,82.70
2018-05-03T02:05:42.886Z,82.70
2018-05-03T02:08:09.724Z,83.20
2018-05-03T02:10:35.880Z,83.10
2018-05-03T02:13:02.705Z,83.60
2018-05-03T02:15:28.796Z,83.60
2018-05-03T02:17:54.906Z,83.90
2018-05-03T02:20:21.007Z,84.30
2018-05-03T02:22:47.149Z,84.50
2018-05-03T02:25:13.268Z,84.60
2018-05-03T02:27:40.113Z,85.40
2018-05-03T02:30:06.965Z,85.10
2018-05-03T02:32:33.042Z,85.10
2018-05-03T02:34:59.131Z,85.40
2018-05-03T02:37:25.570Z,85.40
2018-05-03T02:39:51.664Z,85.40
2018-05-03T02:42:17.786Z,85.10
2018-05-03T02:44:43.897Z,85.60
2018-05-03T02:47:10.069Z,85.60
2018-05-03T02:49:36.205Z,85.70
2018-05-03T02:52:02.345Z,85.80
2018-05-03T02:54:28.434Z,85.80
2018-05-03T03:00:06.033Z,86.00
2018-05-03T03:02:50.854Z,85.90
2018-05-03T03:05:35.629Z,86.00
2018-05-03T03:11:36.926Z,86.20
2018-05-03T03:14:34.409Z,86.20
2018-05-03T03:17:19.065Z,86.50
2018-05-03T03:19:51.161Z,86.70
2018-05-03T03:22:35.865Z,86.70
2018-05-03T03:28:31.440Z,86.60
2018-05-03T03:31:16.328Z,86.60
2018-05-03T03:33:54.679Z,86.80
2018-05-03T03:36:34.086Z,87.10
2018-05-03T03:39:24.325Z,87.10
2018-05-03T03:41:50.395Z,87.90
2018-05-03T03:44:29.059Z,87.30
2018-05-03T03:46:55.199Z,87.40
2018-05-03T03:49:21.286Z,87.20
2018-05-03T03:51:47.361Z,87.10
2018-05-03T03:54:13.460Z,87.10
2018-05-03T03:56:40.288Z,87.00
2018-05-03T03:59:06.463Z,87.00
2018-05-03T04:01:32.503Z,86.90
2018-05-03T04:03:58.697Z,86.90
2018-05-03T04:06:25.562Z,87.10
2018-05-03T04:08:51.653Z,87.10
2018-05-03T04:11:17.910Z,87.20
2018-05-03T04:13:44.758Z,87.50
2018-05-03T04:16:11.634Z,87.60
2018-05-03T04:18:50.249Z,87.50
2018-05-03T04:21:28.747Z,87.60
2018-05-03T04:24:07.978Z,87.70
2018-05-03T04:26:34.824Z,87.80
2018-05-03T04:29:00.929Z,87.80
2018-05-03T04:31:27.013Z,87.90
2018-05-03T04:33:53.302Z,87.90
2018-05-03T04:36:19.419Z,87.80
2018-05-03T04:38:45.522Z,87.70
2018-05-03T04:41:11.680Z,87.40
2018-05-03T04:43:37.797Z,87.20
2018-05-03T04:46:03.924Z,87.20
2018-05-03T04:48:30.793Z,87.10
2018-05-03T04:50:56.962Z,87.10
2018-05-03T04:53:23.033Z,87.00
2018-05-03T04:55:49.216Z,87.10
2018-05-03T04:58:15.356Z,87.10
2018-05-03T05:00:41.450Z,87.30
2018-05-03T05:03:07.552Z,88.30
2018-05-03T05:05:33.653Z,87.80
2018-05-03T05:08:00.560Z,88.40
2018-05-03T05:10:26.689Z,88.30
2018-05-03T05:12:52.747Z,88.60
2018-05-03T05:15:18.959Z,88.70
2018-05-03T05:17:45.155Z,88.90
2018-05-03T05:20:11.230Z,88.80
2018-05-03T05:22:37.330Z,88.70
2018-05-03T05:25:03.450Z,88.40
2018-05-03T05:27:29.572Z,88.00
2018-05-03T05:29:56.396Z,87.80
2018-05-03T05:32:22.536Z,87.80
2018-05-03T05:34:49.391Z,88.00
2018-05-03T05:37:15.536Z,87.90
2018-05-03T05:39:42.373Z,88.30
2018-05-03T05:42:09.207Z,88.50
2018-05-03T05:44:35.314Z,88.50
2018-05-03T05:47:01.419Z,88.80
2018-05-03T05:49:27.522Z,88.80
2018-05-03T05:51:54.405Z,88.40
2018-05-03T05:54:20.613Z,88.30
2018-05-03T05:56:46.892Z,88.10
2018-05-03T05:59:13.033Z,88.00
2018-05-03T06:01:39.107Z,88.00
2018-05-03T06:04:05.975Z,88.10
2018-05-03T06:06:32.721Z,88.00
2018-05-03T06:08:58.814Z,88.10
2018-05-03T06:11:24.930Z,88.20
2018-05-03T06:13:51.086Z,89.00
2018-05-03T06:16:17.990Z,89.30
2018-05-03T06:18:44.087Z,88.50
2018-05-03T06:21:10.165Z,88.50
2018-05-03T06:23:36.260Z,88.50
2018-05-03T06:26:02.461Z,88.50
2018-05-03T06:28:28.580Z,88.30
2018-05-03T06:30:54.690Z,88.20
2018-05-03T06:33:20.784Z,88.10
2018-05-03T06:35:46.887Z,88.10
2018-05-03T06:38:13.014Z,88.00
2018-05-03T06:40:39.163Z,87.90
2018-05-03T06:43:05.273Z,88.10
2018-05-03T06:45:32.117Z,87.50
2018-05-03T06:47:58.245Z,87.40
2018-05-03T06:50:24.356Z,87.40
2018-05-03T06:52:50.461Z,87.40
2018-05-03T06:55:16.553Z,87.60
2018-05-03T06:57:42.668Z,87.60
2018-05-03T07:00:08.796Z,87.70
2018-05-03T07:02:34.921Z,87.80
2018-05-03T07:05:01.047Z,87.80
2018-05-03T07:07:27.211Z,87.80
2018-05-03T07:09:53.325Z,87.70
2018-05-03T07:12:19.449Z,87.80
2018-05-03T07:14:45.616Z,88.00
2018-05-03T07:17:11.717Z,88.10
2018-05-03T07:19:37.831Z,87.90
2018-05-03T07:22:03.914Z,87.80
2018-05-03T07:24:30.774Z,87.60
2018-05-03T07:26:57.600Z,87.50
2018-05-03T07:29:23.821Z,87.50
2018-05-03T07:31:49.909Z,87.60
2018-05-03T07:34:16.021Z,87.70
2018-05-03T07:36:42.846Z,87.80
2018-05-03T07:39:09.061Z,87.70
2018-05-03T07:41:35.161Z,87.80
2018-05-03T07:44:01.265Z,87.80
2018-05-03T07:46:28.088Z,87.90
2018-05-03T07:48:54.172Z,87.90
2018-05-03T07:51:20.275Z,87.70
2018-05-03T07:53:47.145Z,87.60
2018-05-03T07:56:13.279Z,87.50
2018-05-03T07:58:39.369Z,87.50
2018-05-03T08:01:06.257Z,87.30
2018-05-03T08:03:32.388Z,87.30
2018-05-03T08:05:58.481Z,87.30
2018-05-03T08:08:24.597Z,87.20
2018-05-03T08:10:50.754Z,87.60
2018-05-03T08:13:16.846Z,87.20
2018-05-03T08:15:42.977Z,87.30
2018-05-03T08:18:09.103Z,87.40
2018-05-03T08:20:35.590Z,87.50
2018-05-03T08:23:01.745Z,87.50
2018-05-03T08:25:27.863Z,87.60
2018-05-03T08:27:54.745Z,88.30
2018-05-03T08:30:20.841Z,87.60
2018-05-03T08:32:47.697Z,88.00
2018-05-03T08:35:14.544Z,87.80
2018-05-03T08:37:41.399Z,87.90
2018-05-03T08:40:08.236Z,87.80
2018-05-03T08:42:35.081Z,87.70
2018-05-03T08:45:01.984Z,87.60
2018-05-03T08:47:28.101Z,87.50
2018-05-03T08:49:54.190Z,87.50
2018-05-03T08:52:20.318Z,87.20
2018-05-03T08:54:46.429Z,87.20
2018-05-03T08:57:12.554Z,87.20
2018-05-03T08:59:38.829Z,86.90
2018-05-03T09:02:05.304Z,87.40
2018-05-03T09:04:31.633Z,87.50
2018-05-03T09:06:57.798Z,87.80
2018-05-03T09:09:23.973Z,88.10
2018-05-03T09:11:50.792Z,88.60
2018-05-03T09:14:17.332Z,88.40
2018-05-03T09:16:43.417Z,88.60
2018-05-03T09:19:09.532Z,88.50
2018-05-03T09:21:36.425Z,87.80
2018-05-03T09:24:02.511Z,87.70
2018-05-03T09:26:29.357Z,87.30
2018-05-03T09:28:56.218Z,86.90
2018-05-03T09:31:22.330Z,86.80
2018-05-03T09:33:48.437Z,86.50
2018-05-03T09:36:14.554Z,85.80
2018-05-03T09:38:40.675Z,85.20
2018-05-03T09:41:06.790Z,84.60
2018-05-03T09:43:32.882Z,84.30
2018-05-03T09:45:58.985Z,83.80
2018-05-03T09:48:25.801Z,83.50
2018-05-03T09:50:51.890Z,83.30
2018-05-03T09:53:17.992Z,83.00
2018-05-03T09:55:44.118Z,82.80
2018-05-03T09:58:11.777Z,82.50
2018-05-03T10:00:37.857Z,82.20
2018-05-03T10:03:03.932Z,82.30
2018-05-03T10:05:37.377Z,82.10
2018-05-03T10:08:03.537Z,82.00
2018-05-03T10:10:30.364Z,81.80
2018-05-03T10:12:57.123Z,81.70
2018-05-03T10:15:23.274Z,81.80
2018-05-03T10:17:49.393Z,81.70
2018-05-03T10:20:16.245Z,82.20
2018-05-03T10:22:42.401Z,81.20
2018-05-03T10:25:08.498Z,82.00
2018-05-03T10:27:35.345Z,81.40
2018-05-03T10:30:02.216Z,81.30
2018-05-03T10:32:28.420Z,81.20
2018-05-03T10:34:54.505Z,81.30
2018-05-03T10:37:20.625Z,81.30
2018-05-03T10:39:46.746Z,81.40
2018-05-03T10:42:12.888Z,81.30
2018-05-03T10:44:38.964Z,81.10
2018-05-03T10:47:05.086Z,81.00
2018-05-03T10:49:31.217Z,81.10
2018-05-03T10:51:58.372Z,81.20
2018-05-03T10:54:24.506Z,81.10
2018-05-03T10:56:51.410Z,81.00
2018-05-03T10:59:17.526Z,80.80
2018-05-03T11:01:43.662Z,80.90
2018-05-03T11:04:10.513Z,80.80
2018-05-03T11:06:37.720Z,80.70
2018-05-03T11:09:04.747Z,80.60
2018-05-03T11:11:31.683Z,80.40
2018-05-03T11:13:57.936Z,80.30
2018-05-03T11:16:24.920Z,80.40
2018-05-03T11:18:51.106Z,80.40
2018-05-03T11:21:17.262Z,80.40
2018-05-03T11:23:43.388Z,80.30
2018-05-03T11:26:09.506Z,80.30
2018-05-03T11:28:35.640Z,80.10
2018-05-03T11:31:01.743Z,79.90
2018-05-03T11:33:27.834Z,79.50
2018-05-03T11:35:53.960Z,79.40
2018-05-03T11:38:20.045Z,78.80
2018-05-03T11:40:46.172Z,78.70
2018-05-03T11:43:13.000Z,78.70
2018-05-03T11:45:39.111Z,78.70
2018-05-03T11:48:05.225Z,78.90
2018-05-03T11:50:31.346Z,78.80
2018-05-03T11:52:58.200Z,78.80
2018-05-03T11:55:24.295Z,78.90
2018-05-03T11:57:51.177Z,78.40
2018-05-03T12:00:17.276Z,78.30
2018-05-03T12:02:43.409Z,78.00
2018-05-03T12:05:10.261Z,77.60
2018-05-03T12:07:37.813Z,77.40
2018-05-03T12:10:03.898Z,77.20
2018-05-03T12:12:29.995Z,76.70
2018-05-03T12:14:56.853Z,75.20
2018-05-03T12:17:23.697Z,74.70
2018-05-03T12:19:49.789Z,74.50
2018-05-03T12:22:15.914Z,74.00
2018-05-03T12:24:42.050Z,73.30
2018-05-03T12:27:08.191Z,73.00
2018-05-03T12:29:34.274Z,72.90
2018-05-03T12:32:00.381Z,72.20
2018-05-03T12:34:27.232Z,71.60
2018-05-03T12:36:53.397Z,71.40
2018-05-03T12:39:19.481Z,71.20
2018-05-03T12:41:45.609Z,70.80
2018-05-03T12:44:12.490Z,70.60
2018-05-03T12:46:40.733Z,69.60
2018-05-03T12:49:06.914Z,69.00
2018-05-03T12:51:33.001Z,68.50
2018-05-03T12:54:00.664Z,66.80
2018-05-03T12:56:26.788Z,66.60
2018-05-03T12:58:53.671Z,66.30
2018-05-03T13:01:20.536Z,66.00
2018-05-03T13:03:46.661Z,65.80
2018-05-03T13:06:12.776Z,65.70
2018-05-03T13:08:39.669Z,64.60
2018-05-03T13:11:05.781Z,64.40
2018-05-03T13:13:31.891Z,63.80
2018-05-03T13:15:58.792Z,62.80
2018-05-03T13:18:24.941Z,62.60
2018-05-03T13:20:51.137Z,62.70
2018-05-03T13:23:17.225Z,62.70
2018-05-03T13:25:43.292Z,62.40
2018-05-03T13:28:09.377Z,62.70
2018-05-03T13:30:35.484Z,61.90
2018-05-03T13:33:02.322Z,61.40
2018-05-03T13:35:28.421Z,61.60
2018-05-03T13:37:54.531Z,61.20
2018-05-03T13:40:20.645Z,60.80
2018-05-03T13:42:46.760Z,60.70
2018-05-03T13:45:12.866Z,60.20
2018-05-03T13:47:39.048Z,60.10
2018-05-03T13:50:05.582Z,59.90
2018-05-03T13:52:31.686Z,59.90
2018-05-03T13:54:57.810Z,59.70
2018-05-03T13:57:23.909Z,59.70
2018-05-03T13:59:50.769Z,59.40
2018-05-03T14:02:16.881Z,59.10
2018-05-03T14:04:43.728Z,59.00
2018-05-03T14:07:09.971Z,58.90
2018-05-03T14:09:35.979Z,58.90
2018-05-03T14:12:02.105Z,58.90
2018-05-03T14:14:28.216Z,58.70
2018-05-03T14:16:54.335Z,58.70
2018-05-03T14:19:20.517Z,58.70
2018-05-03T14:21:46.619Z,58.50
2018-05-03T14:24:12.730Z,58.50
2018-05-03T14:26:38.823Z,58.30
2018-05-03T14:29:04.985Z,58.40
2018-05-03T14:31:31.118Z,57.90
2018-05-03T14:33:57.222Z,57.60
2018-05-03T14:36:23.320Z,57.20
2018-05-03T14:38:50.256Z,56.90
2018-05-03T14:41:16.417Z,56.70
2018-05-03T14:43:42.546Z,57.10
2018-05-03T14:46:08.648Z,57.20
2018-05-03T14:48:34.810Z,57.40
2018-05-03T14:51:01.040Z,57.40
2018-05-03T14:53:27.158Z,57.30
2018-05-03T14:55:53.274Z,58.10
2018-05-03T14:58:19.420Z,57.60
2018-05-03T15:00:45.535Z,57.70
2018-05-03T15:03:11.681Z,57.70
2018-05-03T15:05:37.772Z,57.80
2018-05-03T15:08:04.657Z,58.00
2018-05-03T15:10:30.825Z,57.90
2018-05-03T15:12:56.912Z,58.10
2018-05-03T15:15:22.997Z,58.40
2018-05-03T15:17:49.084Z,58.30
2018-05-03T15:20:15.862Z,58.40
2018-05-03T15:22:41.960Z,58.50
2018-05-03T15:25:08.085Z,58.60
2018-05-03T15:27:34.194Z,58.80
2018-05-03T15:30:00.350Z,59.10
2018-05-03T15:32:26.437Z,59.30
2018-05-03T15:34:53.269Z,59.30
2018-05-03T15:37:19.394Z,59.60
2018-05-03T15:39:45.569Z,59.70
2018-05-03T15:42:12.344Z,59.70
2018-05-03T15:44:38.563Z,59.80
2018-05-03T15:47:04.617Z,59.80
2018-05-03T15:49:30.724Z,59.90
2018-05-03T15:51:56.807Z,59.90
2018-05-03T15:54:22.904Z,60.00
2018-05-03T15:56:49.070Z,60.00
2018-05-03T15:59:15.198Z,60.10
2018-05-03T16:01:41.405Z,60.30
2018-05-03T16:04:07.422Z,60.80
2018-05-03T16:06:33.539Z,60.00
2018-05-03T16:09:00.235Z,60.00
2018-05-03T16:11:26.372Z,59.70
2018-05-03T16:13:52.506Z,59.40
2018-05-03T16:16:18.620Z,59.30
2018-05-03T16:18:44.871Z,59.20
2018-05-03T16:21:11.005Z,59.10
2018-05-03T16:23:37.109Z,58.90
2018-05-03T16:26:03.281Z,58.70
2018-05-03T16:28:29.382Z,58.70
2018-05-03T16:30:55.499Z,58.70
2018-05-03T16:33:21.616Z,58.60
2018-05-03T16:35:47.802Z,58.50
2018-05-03T16:38:13.925Z,58.50
2018-05-03T16:40:40.083Z,58.40
2018-05-03T16:43:06.157Z,58.30
2018-05-03T16:45:32.311Z,58.90
2018-05-03T16:47:58.412Z,58.30
2018-05-03T16:50:24.540Z,58.40
2018-05-03T16:52:50.663Z,58.50
2018-05-03T16:55:16.823Z,58.40
2018-05-03T16:57:42.966Z,58.40
2018-05-03T17:00:09.056Z,58.40
2018-05-03T17:02:35.719Z,58.50
2018-05-03T17:05:01.852Z,59.20
2018-05-03T17:07:34.150Z,58.80
2018-05-03T17:10:00.341Z,59.00
2018-05-03T17:12:26.465Z,59.00
2018-05-03T17:14:53.341Z,59.30
2018-05-03T17:17:19.467Z,59.20
2018-05-03T17:19:45.601Z,59.40
2018-05-03T17:22:11.693Z,59.50
2018-05-03T17:24:37.810Z,59.70
2018-05-03T17:27:03.959Z,59.80
2018-05-03T17:29:30.065Z,60.10
2018-05-03T17:31:56.192Z,60.20
2018-05-03T17:34:22.268Z,60.10
2018-05-03T17:36:48.418Z,60.80
2018-05-03T17:39:14.572Z,60.10
2018-05-03T17:41:41.033Z,60.10
2018-05-03T17:44:07.157Z,60.00
2018-05-03T17:46:33.273Z,60.20
2018-05-03T17:48:59.420Z,60.30
2018-05-03T17:51:25.571Z,60.40
2018-05-03T17:53:51.676Z,60.40
2018-05-03T17:56:17.781Z,60.40
2018-05-03T17:58:44.658Z,60.60
2018-05-03T18:01:10.809Z,60.50
2018-05-03T18:03:36.951Z,60.70
2018-05-03T18:06:03.036Z,60.90
2018-05-03T18:08:29.175Z,61.10
2018-05-03T18:10:55.360Z,61.30
2018-05-03T18:13:21.840Z,61.40
2018-05-03T18:15:47.977Z,61.60
2018-05-03T18:18:14.084Z,61.70
2018-05-03T18:20:40.371Z,62.00
2018-05-03T18:23:06.484Z,62.10
2018-05-03T18:25:32.614Z,62.10
2018-05-03T18:27:58.759Z,62.30
2018-05-03T18:30:24.925Z,63.10
2018-05-03T18:32:51.057Z,62.40
2018-05-03T18:35:17.139Z,62.60
2018-05-03T18:37:43.267Z,62.70
2018-05-03T18:40:09.461Z,62.80
2018-05-03T18:42:35.573Z,62.80
2018-05-03T18:45:01.681Z,63.00
2018-05-03T18:47:27.846Z,63.20
2018-05-03T18:49:53.991Z,63.40
2018-05-03T18:52:20.077Z,63.60
2018-05-03T18:54:46.216Z,63.70
2018-05-03T18:57:12.324Z,63.90
2018-05-03T18:59:38.495Z,64.00
2018-05-03T19:02:04.836Z,64.10
2018-05-03T19:04:31.554Z,64.20
2018-05-03T19:06:57.725Z,64.30
2018-05-03T19:09:23.847Z,65.20
2018-05-03T19:11:50.180Z,65.00
2018-05-03T19:14:16.736Z,64.60
2018-05-03T19:16:42.935Z,64.70
2018-05-03T19:19:09.012Z,64.90
2018-05-03T19:21:35.941Z,65.10
2018-05-03T19:24:02.064Z,65.10
2018-05-03T19:26:28.168Z,65.30
2018-05-03T19:28:54.273Z,65.00
2018-05-03T19:31:20.410Z,64.90
2018-05-03T19:33:46.530Z,64.60
2018-05-03T19:36:12.685Z,64.30
2018-05-03T19:38:38.812Z,64.10
2018-05-03T19:41:04.959Z,63.80
2018-05-03T19:43:31.151Z,63.70
2018-05-03T19:45:57.221Z,63.70
2018-05-03T19:48:23.354Z,63.80
2018-05-03T19:50:49.614Z,63.80
2018-05-03T19:53:15.945Z,63.90
2018-05-03T19:55:42.085Z,64.10
2018-05-03T19:58:08.394Z,64.30
2018-05-03T20:00:34.511Z,64.50
2018-05-03T20:03:01.620Z,64.10
2018-05-03T20:05:27.750Z,64.00
2018-05-03T20:07:54.660Z,63.70
2018-05-03T20:10:20.788Z,63.50
2018-05-03T20:12:46.945Z,63.30
2018-05-03T20:15:13.156Z,63.10
2018-05-03T20:17:39.214Z,62.80
2018-05-03T20:20:05.362Z,62.60
2018-05-03T20:22:31.557Z,62.40
2018-05-03T20:24:57.680Z,62.20
2018-05-03T20:27:24.524Z,61.80
2018-05-03T20:29:50.646Z,61.70
2018-05-03T20:32:17.502Z,61.70
2018-05-03T20:34:43.650Z,61.50
2018-05-03T20:37:09.773Z,61.60
2018-05-03T20:39:35.913Z,61.40
2018-05-03T20:42:02.119Z,61.40
2018-05-03T20:44:29.032Z,62.30
2018-05-03T20:46:55.160Z,61.40
2018-05-03T20:49:21.287Z,61.50
2018-05-03T20:51:47.395Z,61.60
2018-05-03T20:54:13.521Z,61.60
2018-05-03T20:56:39.730Z,61.60
2018-05-03T20:59:06.170Z,61.60
2018-05-03T21:01:32.710Z,61.70
2018-05-03T21:03:59.050Z,61.80
2018-05-03T21:06:25.229Z,61.90
2018-05-03T21:08:51.365Z,61.90
2018-05-03T21:11:17.697Z,62.00
2018-05-03T21:13:43.872Z,62.00
2018-05-03T21:16:09.996Z,62.10
2018-05-03T21:18:36.108Z,62.00
2018-05-03T21:21:02.196Z,61.90
2018-05-03T21:23:28.349Z,61.90
2018-05-03T21:25:54.457Z,61.60
2018-05-03T21:28:21.320Z,61.00
2018-05-03T21:30:48.171Z,60.80
2018-05-03T21:33:14.281Z,60.60
2018-05-03T21:35:40.889Z,60.60
2018-05-03T21:38:07.009Z,60.30
2018-05-03T21:40:33.126Z,60.10
2018-05-03T21:42:59.245Z,60.00
2018-05-03T21:45:25.409Z,59.80
2018-05-03T21:47:51.605Z,59.90
2018-05-03T21:50:17.669Z,59.90
2018-05-03T21:52:43.776Z,59.80
2018-05-03T21:55:09.894Z,59.70
2018-05-03T21:57:37.480Z,59.50
2018-05-03T22:00:03.627Z,59.40
2018-05-03T22:02:29.733Z,59.50
2018-05-03T22:04:55.887Z,59.50
2018-05-03T22:07:22.020Z,59.40
2018-05-03T22:09:48.152Z,59.70
2018-05-03T22:12:14.244Z,59.50
2018-05-03T22:14:41.074Z,59.40
2018-05-03T22:17:07.177Z,59.30
2018-05-03T22:19:33.341Z,59.40
2018-05-03T22:21:59.424Z,59.40
2018-05-03T22:24:25.562Z,59.40
2018-05-03T22:26:51.732Z,59.30
2018-05-03T22:29:17.859Z,59.40
2018-05-03T22:31:43.980Z,59.40
2018-05-03T22:34:10.085Z,59.50
2018-05-03T22:36:36.877Z,59.50
2018-05-03T22:39:02.993Z,59.50
2018-05-03T22:41:29.094Z,59.50
2018-05-03T22:43:55.241Z,59.50
2018-05-03T22:46:21.341Z,59.30
2018-05-03T22:48:47.449Z,59.20
2018-05-03T22:51:14.301Z,58.90
2018-05-03T22:53:41.151Z,58.80
2018-05-03T22:56:08.016Z,58.80
2018-05-03T22:58:37.951Z,58.80
2018-05-03T23:01:04.085Z,58.70
2018-05-03T23:03:30.205Z,58.80
2018-05-03T23:05:56.334Z,58.80
2018-05-03T23:08:22.456Z,58.70
2018-05-03T23:10:48.545Z,58.60
2018-05-03T23:13:15.564Z,58.50
2018-05-03T23:15:41.659Z,58.30
2018-05-03T23:18:08.506Z,58.10
2018-05-03T23:20:35.368Z,57.90
2018-05-03T23:23:01.610Z,57.80
2018-05-03T23:25:28.657Z,57.60
2018-05-03T23:27:54.785Z,57.60
2018-05-03T23:30:21.647Z,57.50
2018-05-03T23:32:48.494Z,58.10
2018-05-03T23:35:14.621Z,57.50
2018-05-03T23:37:40.773Z,57.40
2018-05-03T23:40:10.447Z,57.20
2018-05-03T23:42:42.993Z,57.30
2018-05-03T23:45:09.099Z,57.20
2018-05-03T23:47:35.193Z,57.40
2018-05-03T23:50:02.054Z,57.30
2018-05-03T23:52:28.182Z,57.20
2018-05-03T23:54:55.079Z,57.00
2018-05-03T23:57:21.336Z,56.90
2018-05-03T23:59:47.442Z,57.20
